Time;durP1;ratioP1;P1;durP2;ratioP2;P2;SDS_P1;SDS_P2;PMS_P1;PMS_P2;Temp;Humidity;BMP_temperature;BMP_pressure;BME280_temperature;BME280_humidity;BME280_pressure;Samples;Min_cycle;Max_cycle;Signal;HPM_P1;HPM_P2
2021/01/31 00:00:39;;;;;;;11.05;8.20;;;;;;;;;;4966587;29;20292;-90
2021/01/31 00:03:53;;;;;;;11.18;7.78;;;;;;;;;;4965602;28;20205;-94
2021/01/31 00:09:56;;;;;;;9.90;7.55;;;;;;;;;;4963131;29;20276;-94
2021/01/31 00:12:58;;;;;;;9.25;7.50;;;;;;;;;;4963338;29;20224;-91
2021/01/31 00:15:29;;;;;;;8.77;6.88;;;;;;;;;;4963084;29;20205;-92
2021/01/31 00:17:57;;;;;;;8.27;7.30;;;;;;;;;;4944017;29;20206;-93
2021/01/31 00:20:44;;;;;;;14.38;9.50;;;;;;;;;;4944185;29;20206;-93
2021/01/31 00:23:14;;;;;;;8.85;7.60;;;;;;;;;;4944290;29;20201;-92
2021/01/31 00:25:41;;;;;;;8.63;7.20;;;;;;;;;;4944007;29;20526;-91
2021/01/31 00:28:13;;;;;;;10.13;7.65;;;;;;;;;;4943297;29;20185;-94
2021/01/31 00:30:42;;;;;;;8.55;7.00;;;;;;;;;;4943588;29;20636;-92
2021/01/31 00:33:11;;;;;;;9.85;7.38;;;;;;;;;;4943959;29;20221;-93
2021/01/31 00:35:42;;;;;;;6.10;5.50;;;;;;;;;;4943722;29;20193;-94
2021/01/31 00:38:12;;;;;;;9.85;7.82;;;;;;;;;;4943301;29;20186;-90
2021/01/31 00:40:40;;;;;;;8.10;7.10;;;;;;;;;;4944388;29;20556;-93
2021/01/31 00:43:07;;;;;;;8.65;7.70;;;;;;;;;;4943892;29;20505;-92
2021/01/31 00:45:45;;;;;;;7.70;6.60;;;;;;;;;;4943838;29;20202;-93
2021/01/31 00:48:13;;;;;;;8.23;7.28;;;;;;;;;;4943960;29;20292;-92
2021/01/31 00:50:42;;;;;;;9.27;8.02;;;;;;;;;;4943214;29;20185;-91
2021/01/31 00:56:10;;;;;;;10.07;7.40;;;;;;;;;;4921531;29;20620;-92
2021/01/31 00:58:37;;;;;;;11.05;8.13;;;;;;;;;;4943036;29;20198;-91
2021/01/31 01:01:04;;;;;;;8.93;7.53;;;;;;;;;;4942919;29;20368;-94
2021/01/31 01:03:31;;;;;;;9.07;7.15;;;;;;;;;;4943193;29;20190;-92
2021/01/31 01:05:59;;;;;;;8.07;6.50;;;;;;;;;;4943802;29;20558;-92
2021/01/31 01:08:26;;;;;;;7.47;6.68;;;;;;;;;;4943411;29;20208;-93
2021/01/31 01:10:53;;;;;;;9.43;7.05;;;;;;;;;;4942851;29;20280;-92
2021/01/31 01:13:20;;;;;;;8.45;6.72;;;;;;;;;;4942641;29;20190;-88
2021/01/31 01:15:47;;;;;;;8.50;6.53;;;;;;;;;;4942208;29;20560;-88
2021/01/31 01:18:14;;;;;;;9.85;7.78;;;;;;;;;;4942851;29;20523;-94
2021/01/31 01:23:30;;;;;;;9.25;7.38;;;;;;;;;;4939710;29;20202;-91
2021/01/31 01:25:57;;;;;;;10.88;7.40;;;;;;;;;;4942656;29;20198;-90
2021/01/31 01:28:24;;;;;;;8.18;7.35;;;;;;;;;;4942849;29;20434;-92
2021/01/31 01:30:51;;;;;;;7.93;7.13;;;;;;;;;;4942324;29;20268;-92
2021/01/31 01:33:18;;;;;;;7.90;6.82;;;;;;;;;;4941956;29;20188;-89
2021/01/31 01:35:45;;;;;;;7.65;6.75;;;;;;;;;;4941944;29;20186;-95
2021/01/31 01:38:12;;;;;;;8.15;6.90;;;;;;;;;;4943148;29;20224;-89
2021/01/31 01:40:41;;;;;;;7.45;6.47;;;;;;;;;;4942187;29;20531;-89
2021/01/31 01:43:20;;;;;;;10.00;7.15;;;;;;;;;;4942406;29;20520;-94
2021/01/31 01:46:42;;;;;;;9.68;7.15;;;;;;;;;;4942973;29;20202;-92
2021/01/31 01:49:20;;;;;;;9.35;7.10;;;;;;;;;;4941548;29;20250;-88
2021/01/31 01:51:57;;;;;;;9.23;6.60;;;;;;;;;;4941874;29;20476;-93
2021/01/31 01:54:28;;;;;;;9.55;7.20;;;;;;;;;;4943084;29;20205;-93
2021/01/31 01:57:02;;;;;;;9.48;7.13;;;;;;;;;;4942306;29;20548;-92
2021/01/31 01:59:30;;;;;;;10.45;7.60;;;;;;;;;;4939693;29;20267;-92
2021/01/31 02:02:12;;;;;;;7.18;5.47;;;;;;;;;;4942304;29;20209;-91
2021/01/31 02:04:40;;;;;;;8.10;6.68;;;;;;;;;;4941983;29;20314;-93
2021/01/31 02:07:07;;;;;;;10.43;7.40;;;;;;;;;;4941932;29;20206;-91
2021/01/31 02:09:46;;;;;;;11.35;7.22;;;;;;;;;;4941918;29;20320;-91
2021/01/31 02:12:29;;;;;;;7.25;5.90;;;;;;;;;;4941671;29;20433;-91
2021/01/31 02:14:59;;;;;;;7.88;6.18;;;;;;;;;;4942718;29;20209;-91
2021/01/31 02:17:41;;;;;;;6.65;5.43;;;;;;;;;;4941626;29;20258;-92
2021/01/31 02:20:50;;;;;;;6.70;6.00;;;;;;;;;;4941523;29;20217;-92
2021/01/31 02:24:10;;;;;;;8.20;5.85;;;;;;;;;;4942277;29;20209;-92
2021/01/31 02:27:40;;;;;;;10.90;6.95;;;;;;;;;;4902150;29;20203;-89
2021/01/31 02:30:35;;;;;;;9.10;5.72;;;;;;;;;;4899638;29;20219;-92
2021/01/31 02:33:32;;;;;;;9.05;6.43;;;;;;;;;;4942104;28;20525;-89
2021/01/31 02:36:04;;;;;;;8.10;5.97;;;;;;;;;;4921160;29;20234;-91
2021/01/31 02:38:34;;;;;;;8.10;6.32;;;;;;;;;;4921136;29;20560;-89
2021/01/31 02:41:05;;;;;;;6.65;5.90;;;;;;;;;;4920986;29;20201;-90
2021/01/31 02:43:38;;;;;;;6.90;5.30;;;;;;;;;;4921395;29;20209;-91
2021/01/31 02:46:12;;;;;;;6.82;6.10;;;;;;;;;;4921800;29;20218;-91
2021/01/31 02:48:45;;;;;;;6.47;5.78;;;;;;;;;;4939690;29;20258;-90
2021/01/31 02:51:19;;;;;;;6.35;5.38;;;;;;;;;;4940282;29;20202;-91
2021/01/31 02:53:56;;;;;;;6.85;6.18;;;;;;;;;;4940273;29;20308;-90
2021/01/31 02:56:29;;;;;;;6.95;5.72;;;;;;;;;;4939730;29;20193;-91
2021/01/31 02:59:01;;;;;;;7.70;5.85;;;;;;;;;;4940039;29;20249;-91
2021/01/31 03:01:33;;;;;;;7.22;6.10;;;;;;;;;;4940072;29;20478;-91
2021/01/31 03:04:06;;;;;;;6.80;5.88;;;;;;;;;;4939646;29;20186;-90
2021/01/31 03:06:41;;;;;;;7.68;6.55;;;;;;;;;;4939901;29;20647;-92
2021/01/31 03:09:12;;;;;;;11.57;6.82;;;;;;;;;;4939830;29;20544;-91
2021/01/31 03:11:46;;;;;;;8.95;7.25;;;;;;;;;;4939567;29;20194;-93
2021/01/31 03:14:20;;;;;;;8.85;6.03;;;;;;;;;;4941266;29;20460;-92
2021/01/31 03:16:54;;;;;;;8.15;6.18;;;;;;;;;;4941295;29;20244;-92
2021/01/31 03:19:27;;;;;;;6.68;5.68;;;;;;;;;;4942036;29;20208;-92
2021/01/31 03:21:57;;;;;;;8.00;5.82;;;;;;;;;;4941707;28;20533;-92
2021/01/31 03:24:31;;;;;;;8.25;6.57;;;;;;;;;;4941362;29;20194;-92
2021/01/31 03:27:03;;;;;;;8.15;6.68;;;;;;;;;;4941606;29;20197;-91
2021/01/31 03:29:31;;;;;;;8.25;6.25;;;;;;;;;;4938678;28;20240;-92
2021/01/31 03:32:05;;;;;;;8.75;6.35;;;;;;;;;;4939904;29;20293;-91
2021/01/31 03:34:52;;;;;;;6.50;5.80;;;;;;;;;;4940249;29;20211;-92
2021/01/31 03:37:23;;;;;;;9.25;7.18;;;;;;;;;;4941513;29;20197;-94
2021/01/31 03:39:56;;;;;;;9.63;7.90;;;;;;;;;;4942822;29;20268;-93
2021/01/31 03:42:24;;;;;;;9.43;6.95;;;;;;;;;;4944411;29;20182;-94
2021/01/31 03:44:52;;;;;;;10.10;6.53;;;;;;;;;;4944481;29;20206;-93
2021/01/31 03:47:26;;;;;;;8.02;6.75;;;;;;;;;;4945505;29;20229;-93
2021/01/31 03:49:58;;;;;;;10.73;7.65;;;;;;;;;;4944423;29;20564;-94
2021/01/31 03:52:36;;;;;;;9.27;7.20;;;;;;;;;;4943946;29;20556;-93
2021/01/31 03:55:03;;;;;;;10.27;7.45;;;;;;;;;;4944425;29;20268;-93
2021/01/31 03:57:33;;;;;;;9.88;7.13;;;;;;;;;;4944855;29;20202;-93
2021/01/31 04:00:17;;;;;;;10.85;7.10;;;;;;;;;;4944552;29;20260;-92
2021/01/31 04:02:54;;;;;;;10.15;7.95;;;;;;;;;;4896128;29;20570;-93
2021/01/31 04:05:23;;;;;;;8.38;6.75;;;;;;;;;;4943950;29;20566;-92
2021/01/31 04:07:53;;;;;;;9.32;7.30;;;;;;;;;;4944383;29;20458;-91
2021/01/31 04:10:22;;;;;;;8.70;6.40;;;;;;;;;;4943452;29;20301;-92
2021/01/31 04:12:59;;;;;;;9.52;6.72;;;;;;;;;;4944434;29;20210;-94
2021/01/31 04:15:48;;;;;;;9.48;7.72;;;;;;;;;;4943715;29;20563;-94
2021/01/31 04:18:20;;;;;;;9.80;7.00;;;;;;;;;;4943806;29;20202;-93
2021/01/31 04:24:18;;;;;;;10.93;7.75;;;;;;;;;;4904565;29;20286;-94
2021/01/31 04:26:45;;;;;;;8.57;6.53;;;;;;;;;;4904452;29;20233;-94
2021/01/31 04:29:15;;;;;;;9.80;7.10;;;;;;;;;;4905095;29;20203;-93
2021/01/31 04:31:57;;;;;;;8.05;6.90;;;;;;;;;;4904372;29;20256;-93
2021/01/31 04:34:33;;;;;;;10.20;7.93;;;;;;;;;;4892472;29;20280;-94
2021/01/31 04:37:01;;;;;;;8.90;6.95;;;;;;;;;;4901389;29;20242;-93
2021/01/31 04:39:43;;;;;;;9.15;6.82;;;;;;;;;;4903920;29;20203;-95
2021/01/31 04:42:23;;;;;;;9.07;7.50;;;;;;;;;;4904081;29;20199;-94
2021/01/31 04:44:51;;;;;;;7.15;6.38;;;;;;;;;;4904038;29;20207;-94
2021/01/31 04:47:25;;;;;;;8.25;7.18;;;;;;;;;;4904576;29;20251;-92
2021/01/31 04:50:03;;;;;;;7.88;6.50;;;;;;;;;;4903266;29;20217;-93
2021/01/31 04:53:04;;;;;;;8.60;7.30;;;;;;;;;;4904274;29;20553;-92
2021/01/31 04:56:11;;;;;;;8.40;6.65;;;;;;;;;;4829998;29;20209;-92
2021/01/31 04:58:43;;;;;;;9.63;6.78;;;;;;;;;;4831793;29;20191;-92
2021/01/31 05:01:19;;;;;;;9.27;6.93;;;;;;;;;;4866335;29;20488;-93
2021/01/31 05:03:49;;;;;;;9.70;7.47;;;;;;;;;;4866951;29;20204;-92
2021/01/31 05:06:18;;;;;;;7.75;6.95;;;;;;;;;;4866831;29;20362;-92
2021/01/31 05:08:49;;;;;;;9.88;7.38;;;;;;;;;;4866366;29;20197;-93
2021/01/31 05:11:24;;;;;;;7.43;6.43;;;;;;;;;;4866262;29;20225;-95
2021/01/31 05:14:02;;;;;;;8.43;6.50;;;;;;;;;;4866245;29;20204;-94
2021/01/31 05:16:55;;;;;;;7.90;7.00;;;;;;;;;;4866183;29;20318;-94
2021/01/31 05:19:27;;;;;;;9.25;6.78;;;;;;;;;;4859475;29;20582;-93
2021/01/31 05:21:54;;;;;;;8.10;6.82;;;;;;;;;;4866257;29;20200;-95
2021/01/31 05:24:23;;;;;;;8.65;6.20;;;;;;;;;;4865944;29;20184;-93
2021/01/31 05:27:02;;;;;;;8.38;6.22;;;;;;;;;;4866170;29;20212;-94
2021/01/31 05:29:33;;;;;;;8.20;6.63;;;;;;;;;;4866194;29;20368;-94
2021/01/31 05:32:06;;;;;;;9.43;7.68;;;;;;;;;;4881876;29;20221;-94
2021/01/31 05:34:42;;;;;;;9.57;7.95;;;;;;;;;;4943272;29;20210;-94
2021/01/31 05:37:12;;;;;;;8.75;6.40;;;;;;;;;;4942642;29;20201;-94
2021/01/31 05:40:03;;;;;;;8.70;6.75;;;;;;;;;;4943126;29;20266;-93
2021/01/31 05:42:32;;;;;;;8.07;6.75;;;;;;;;;;4938236;29;20210;-94
2021/01/31 05:45:31;;;;;;;9.10;7.03;;;;;;;;;;4942583;29;20210;-94
2021/01/31 05:47:58;;;;;;;8.60;6.28;;;;;;;;;;4942541;28;20237;-94
2021/01/31 05:50:33;;;;;;;6.57;5.93;;;;;;;;;;4941783;29;20472;-95
2021/01/31 05:53:47;;;;;;;7.68;6.47;;;;;;;;;;4942661;29;20219;-93
2021/01/31 05:56:22;;;;;;;11.13;7.35;;;;;;;;;;4942275;29;20289;-92
2021/01/31 05:58:51;;;;;;;8.55;5.40;;;;;;;;;;4942863;29;20213;-92
2021/01/31 06:01:18;;;;;;;10.40;6.30;;;;;;;;;;4941113;29;20313;-93
2021/01/31 06:03:49;;;;;;;6.75;5.78;;;;;;;;;;4942525;29;20206;-93
2021/01/31 06:06:25;;;;;;;7.78;6.00;;;;;;;;;;4942450;29;20206;-94
2021/01/31 06:09:12;;;;;;;9.40;6.93;;;;;;;;;;4941799;29;20182;-93
2021/01/31 06:12:15;;;;;;;7.45;6.03;;;;;;;;;;4942177;29;20237;-94
2021/01/31 06:15:14;;;;;;;7.93;6.65;;;;;;;;;;4921399;29;20234;-94
2021/01/31 06:17:41;;;;;;;7.65;6.15;;;;;;;;;;4921057;29;20273;-93
2021/01/31 06:20:37;;;;;;;7.28;6.10;;;;;;;;;;4921081;29;20202;-93
2021/01/31 06:23:07;;;;;;;7.85;6.50;;;;;;;;;;4902728;29;20277;-93
2021/01/31 06:26:28;;;;;;;9.20;6.93;;;;;;;;;;4902423;29;20207;-93
2021/01/31 06:29:02;;;;;;;7.10;5.63;;;;;;;;;;4903170;29;20286;-93
2021/01/31 06:31:39;;;;;;;7.47;6.15;;;;;;;;;;4902013;29;20625;-92
2021/01/31 06:34:07;;;;;;;8.10;6.10;;;;;;;;;;4902576;29;20206;-93
2021/01/31 06:36:54;;;;;;;7.80;6.35;;;;;;;;;;4902916;29;20457;-93
2021/01/31 06:39:42;;;;;;;6.78;5.85;;;;;;;;;;4902466;29;20262;-92
2021/01/31 06:42:29;;;;;;;6.72;5.57;;;;;;;;;;4902415;29;20195;-92
2021/01/31 06:45:11;;;;;;;7.28;5.50;;;;;;;;;;4911144;28;20215;-94
2021/01/31 06:48:22;;;;;;;7.22;5.88;;;;;;;;;;4939871;29;20245;-93
2021/01/31 06:51:49;;;;;;;7.93;6.35;;;;;;;;;;4846292;29;20232;-93
2021/01/31 06:55:06;;;;;;;8.02;6.47;;;;;;;;;;4829522;29;20503;-95
2021/01/31 07:02:03;;;;;;;7.75;5.70;;;;;;;;;;4834549;29;20292;-92
2021/01/31 07:05:22;;;;;;;9.10;6.32;;;;;;;;;;4755994;30;20220;-94
2021/01/31 07:08:44;;;;;;;7.80;5.93;;;;;;;;;;4756466;29;20516;-93
2021/01/31 07:11:30;;;;;;;7.05;5.35;;;;;;;;;;4686280;30;20243;-93
2021/01/31 07:20:59;;;;;;;7.90;5.75;;;;;;;;;;4656629;30;20476;-93
2021/01/31 07:23:31;;;;;;;8.90;6.72;;;;;;;;;;4690364;30;20218;-94
2021/01/31 07:26:00;;;;;;;8.13;6.30;;;;;;;;;;4689665;30;20196;-94
2021/01/31 07:28:31;;;;;;;7.50;6.40;;;;;;;;;;4718857;30;20341;-94
2021/01/31 07:31:18;;;;;;;6.90;5.57;;;;;;;;;;4724545;30;20244;-93
2021/01/31 07:33:50;;;;;;;8.57;6.03;;;;;;;;;;4743300;30;20644;-93
2021/01/31 07:36:22;;;;;;;6.10;5.50;;;;;;;;;;4795559;30;20208;-94
2021/01/31 07:38:53;;;;;;;6.03;5.32;;;;;;;;;;4795143;30;20228;-94
2021/01/31 07:41:20;;;;;;;8.05;6.55;;;;;;;;;;4823396;29;20213;-94
2021/01/31 07:43:52;;;;;;;7.30;5.75;;;;;;;;;;4849890;29;20198;-94
2021/01/31 07:46:20;;;;;;;8.05;6.80;;;;;;;;;;4857316;29;20225;-94
2021/01/31 07:49:00;;;;;;;7.93;6.22;;;;;;;;;;4921901;29;20497;-94
2021/01/31 07:52:11;;;;;;;6.97;6.25;;;;;;;;;;4945296;29;20225;-94
2021/01/31 07:54:45;;;;;;;8.25;6.45;;;;;;;;;;4935134;29;20198;-94
2021/01/31 07:57:34;;;;;;;7.97;7.13;;;;;;;;;;4945334;29;20193;-94
2021/01/31 08:00:17;;;;;;;9.15;6.85;;;;;;;;;;4945697;29;20260;-96
2021/01/31 08:02:47;;;;;;;8.95;7.00;;;;;;;;;;4945506;29;20249;-94
2021/01/31 08:05:37;;;;;;;9.52;7.32;;;;;;;;;;4946680;29;20258;-93
2021/01/31 08:08:08;;;;;;;10.32;7.75;;;;;;;;;;4958761;28;20201;-94
2021/01/31 08:10:49;;;;;;;8.32;6.70;;;;;;;;;;4964540;29;20294;-94
2021/01/31 08:13:39;;;;;;;12.48;9.13;;;;;;;;;;4964054;29;20466;-93
2021/01/31 08:17:03;;;;;;;11.85;9.32;;;;;;;;;;4963908;28;20236;-92
2021/01/31 08:19:45;;;;;;;8.65;7.55;;;;;;;;;;4963656;29;20204;-94
2021/01/31 08:22:35;;;;;;;9.38;8.00;;;;;;;;;;4962876;28;20197;-92
2021/01/31 08:25:35;;;;;;;11.82;8.15;;;;;;;;;;4962290;28;20437;-93
2021/01/31 08:28:18;;;;;;;9.75;7.22;;;;;;;;;;4963103;29;20528;-93
2021/01/31 08:31:13;;;;;;;8.95;6.53;;;;;;;;;;4962896;29;20306;-94
2021/01/31 08:33:41;;;;;;;9.10;7.15;;;;;;;;;;4963431;29;20202;-93
2021/01/31 08:36:25;;;;;;;7.75;6.82;;;;;;;;;;4963513;29;20481;-94
2021/01/31 08:38:54;;;;;;;9.73;8.18;;;;;;;;;;4963138;29;20506;-94
2021/01/31 08:41:41;;;;;;;10.70;7.68;;;;;;;;;;4962783;29;20563;-94
2021/01/31 08:45:00;;;;;;;8.60;7.03;;;;;;;;;;4963440;29;20205;-94
2021/01/31 08:47:41;;;;;;;9.85;7.43;;;;;;;;;;4962437;28;20229;-92
2021/01/31 08:50:10;;;;;;;10.48;8.32;;;;;;;;;;4962727;29;20185;-93
2021/01/31 08:52:37;;;;;;;9.50;7.93;;;;;;;;;;4957903;29;20237;-94
2021/01/31 08:55:06;;;;;;;11.98;10.73;;;;;;;;;;4942050;29;20214;-93
2021/01/31 08:57:35;;;;;;;15.10;9.73;;;;;;;;;;4942591;29;20186;-93
2021/01/31 09:00:10;;;;;;;12.25;9.38;;;;;;;;;;4942841;29;20190;-93
2021/01/31 09:02:37;;;;;;;10.68;7.70;;;;;;;;;;4943238;29;20201;-94
2021/01/31 09:05:14;;;;;;;11.10;8.90;;;;;;;;;;4942618;29;20205;-93
2021/01/31 09:07:45;;;;;;;9.23;7.75;;;;;;;;;;4943660;29;20201;-94
2021/01/31 09:10:23;;;;;;;11.55;8.55;;;;;;;;;;4943184;29;20201;-94
2021/01/31 09:12:56;;;;;;;10.35;8.45;;;;;;;;;;4943624;29;20250;-95
2021/01/31 09:15:29;;;;;;;9.30;8.30;;;;;;;;;;4943149;29;20217;-93
2021/01/31 09:18:07;;;;;;;9.43;8.13;;;;;;;;;;4942484;29;20312;-95
2021/01/31 09:20:44;;;;;;;11.82;8.98;;;;;;;;;;4942350;29;20562;-94
2021/01/31 09:23:17;;;;;;;10.80;8.73;;;;;;;;;;4944032;29;20265;-95
2021/01/31 09:25:44;;;;;;;12.15;9.15;;;;;;;;;;4942549;29;20293;-94
2021/01/31 09:28:20;;;;;;;9.98;8.98;;;;;;;;;;4942669;29;20209;-93
2021/01/31 09:30:48;;;;;;;11.10;8.23;;;;;;;;;;4924188;29;20510;-93
2021/01/31 09:33:24;;;;;;;11.48;9.38;;;;;;;;;;4924563;29;20231;-95
2021/01/31 09:35:51;;;;;;;12.93;8.75;;;;;;;;;;4924637;29;20272;-93
2021/01/31 09:38:24;;;;;;;9.07;8.07;;;;;;;;;;4928099;29;20194;-96
2021/01/31 09:40:55;;;;;;;10.82;7.82;;;;;;;;;;4930063;29;20257;-94
2021/01/31 09:43:27;;;;;;;9.55;8.02;;;;;;;;;;4927316;29;20206;-94
2021/01/31 09:45:57;;;;;;;9.77;8.07;;;;;;;;;;4922995;29;20220;-94
2021/01/31 09:48:26;;;;;;;9.13;7.78;;;;;;;;;;4923271;29;20257;-95
2021/01/31 09:50:56;;;;;;;11.48;9.02;;;;;;;;;;4923843;29;20218;-94
2021/01/31 09:53:34;;;;;;;8.13;7.32;;;;;;;;;;4923323;29;20322;-95
2021/01/31 09:56:03;;;;;;;8.98;7.18;;;;;;;;;;4923389;29;20257;-94
2021/01/31 09:58:43;;;;;;;9.77;8.20;;;;;;;;;;4924421;29;20281;-94
2021/01/31 10:01:24;;;;;;;9.45;7.68;;;;;;;;;;4923693;29;20213;-94
2021/01/31 10:04:09;;;;;;;10.20;8.15;;;;;;;;;;4923117;29;20225;-94
2021/01/31 10:06:43;;;;;;;12.18;8.35;;;;;;;;;;4924516;29;20289;-94
2021/01/31 10:09:11;;;;;;;8.60;7.70;;;;;;;;;;4925856;29;20265;-95
2021/01/31 10:11:47;;;;;;;7.68;6.53;;;;;;;;;;4937748;29;20199;-95
2021/01/31 10:15:07;;;;;;;9.70;7.35;;;;;;;;;;4961245;29;20232;-96
2021/01/31 10:17:43;;;;;;;8.35;6.30;;;;;;;;;;5032713;23;20231;-94
2021/01/31 10:20:35;;;;;;;9.45;7.18;;;;;;;;;;5000164;28;20204;-94
2021/01/31 10:23:11;;;;;;;8.43;7.10;;;;;;;;;;5000323;28;20218;-94
2021/01/31 10:25:58;;;;;;;7.18;6.47;;;;;;;;;;5000048;28;20290;-95
2021/01/31 10:28:31;;;;;;;7.68;6.53;;;;;;;;;;4999560;28;20253;-94
2021/01/31 10:30:59;;;;;;;8.70;7.07;;;;;;;;;;5000130;28;20200;-94
2021/01/31 10:33:40;;;;;;;8.15;7.30;;;;;;;;;;5000090;28;20581;-95
2021/01/31 10:36:31;;;;;;;9.15;6.35;;;;;;;;;;4999752;28;20274;-95
2021/01/31 10:39:00;;;;;;;8.07;7.18;;;;;;;;;;4999990;28;20279;-95
2021/01/31 10:41:28;;;;;;;7.43;5.72;;;;;;;;;;4999777;28;20261;-95
2021/01/31 10:43:57;;;;;;;8.23;6.97;;;;;;;;;;4999988;28;20258;-94
2021/01/31 10:46:26;;;;;;;7.50;6.65;;;;;;;;;;4993242;28;20228;-94
2021/01/31 10:48:53;;;;;;;9.07;7.78;;;;;;;;;;4980245;28;20196;-95
2021/01/31 10:51:20;;;;;;;7.93;6.95;;;;;;;;;;4980229;28;20224;-93
2021/01/31 10:53:47;;;;;;;8.02;7.22;;;;;;;;;;4979972;28;20230;-95
2021/01/31 10:56:14;;;;;;;6.20;5.60;;;;;;;;;;4979691;28;20602;-95
2021/01/31 10:58:41;;;;;;;8.18;6.93;;;;;;;;;;4979510;28;20197;-94
2021/01/31 11:01:09;;;;;;;9.23;7.20;;;;;;;;;;4979745;28;20574;-94
2021/01/31 11:03:37;;;;;;;8.93;7.40;;;;;;;;;;4979694;28;20201;-94
2021/01/31 11:06:04;;;;;;;8.02;6.80;;;;;;;;;;4980282;28;20204;-95
2021/01/31 11:08:32;;;;;;;9.27;7.78;;;;;;;;;;4980009;28;20208;-94
2021/01/31 11:11:17;;;;;;;7.22;6.40;;;;;;;;;;4979913;28;20208;-94
2021/01/31 11:13:44;;;;;;;7.22;6.25;;;;;;;;;;4979814;28;20220;-94
2021/01/31 11:16:15;;;;;;;8.80;6.70;;;;;;;;;;4979271;28;20299;-94
2021/01/31 11:18:43;;;;;;;7.53;6.72;;;;;;;;;;4979508;28;20562;-93
2021/01/31 11:21:10;;;;;;;9.13;7.03;;;;;;;;;;4979455;28;20578;-95
2021/01/31 11:23:40;;;;;;;7.15;6.45;;;;;;;;;;4980094;28;20193;-95
2021/01/31 11:26:07;;;;;;;8.38;6.90;;;;;;;;;;4979505;28;20208;-94
2021/01/31 11:28:34;;;;;;;11.40;7.10;;;;;;;;;;4979805;28;20204;-94
2021/01/31 11:31:01;;;;;;;10.48;7.45;;;;;;;;;;4980353;28;20256;-95
2021/01/31 11:33:28;;;;;;;9.63;7.53;;;;;;;;;;4975939;28;20227;-93
2021/01/31 11:35:56;;;;;;;10.25;8.75;;;;;;;;;;5150111;23;20319;-94
2021/01/31 11:38:23;;;;;;;7.70;6.80;;;;;;;;;;4968351;28;20335;-93
2021/01/31 11:48:38;;;;;;;10.50;8.30;;;;;;;;;;4969735;28;20228;-93
2021/01/31 11:51:39;;;;;;;7.15;6.32;;;;;;;;;;4978589;28;20259;-94
2021/01/31 11:54:06;;;;;;;7.78;6.55;;;;;;;;;;4973903;28;20223;-94
2021/01/31 11:56:35;;;;;;;9.63;6.85;;;;;;;;;;4979860;28;20201;-94
2021/01/31 11:59:02;;;;;;;9.32;7.28;;;;;;;;;;4980450;28;20200;-96
2021/01/31 12:01:29;;;;;;;8.13;7.25;;;;;;;;;;4982648;28;20224;-94
2021/01/31 12:04:01;;;;;;;10.13;7.43;;;;;;;;;;4982759;28;20205;-95
2021/01/31 12:06:30;;;;;;;7.95;7.15;;;;;;;;;;4988686;28;20200;-94
2021/01/31 12:08:57;;;;;;;8.52;6.68;;;;;;;;;;4982696;28;20185;-94
2021/01/31 12:11:24;;;;;;;8.45;6.70;;;;;;;;;;4982576;28;20246;-94
2021/01/31 12:13:51;;;;;;;6.43;5.43;;;;;;;;;;4979516;28;20601;-95
2021/01/31 12:16:18;;;;;;;8.48;7.05;;;;;;;;;;4982606;28;20200;-95
2021/01/31 12:18:45;;;;;;;7.45;6.40;;;;;;;;;;4982208;28;20287;-94
2021/01/31 12:21:12;;;;;;;7.30;6.60;;;;;;;;;;4983407;28;20200;-93
2021/01/31 12:23:39;;;;;;;7.18;6.47;;;;;;;;;;4982663;28;20227;-94
2021/01/31 12:26:06;;;;;;;8.10;6.15;;;;;;;;;;4981975;28;20291;-94
2021/01/31 12:28:33;;;;;;;7.38;5.93;;;;;;;;;;4972201;28;20557;-95
2021/01/31 12:31:01;;;;;;;6.78;5.40;;;;;;;;;;4966029;28;20228;-95
2021/01/31 12:33:28;;;;;;;6.40;5.80;;;;;;;;;;4981798;28;20234;-94
2021/01/31 12:35:58;;;;;;;8.23;6.15;;;;;;;;;;4982163;28;20211;-93
2021/01/31 12:38:25;;;;;;;9.25;6.55;;;;;;;;;;4981453;28;20224;-94
2021/01/31 12:40:53;;;;;;;6.07;5.57;;;;;;;;;;4981998;28;20205;-94
2021/01/31 12:43:20;;;;;;;9.13;7.28;;;;;;;;;;4981764;28;20225;-93
2021/01/31 12:45:50;;;;;;;7.90;6.10;;;;;;;;;;4981349;28;20196;-94
2021/01/31 12:48:17;;;;;;;6.80;5.95;;;;;;;;;;4981315;28;20612;-95
2021/01/31 12:50:54;;;;;;;7.30;6.43;;;;;;;;;;4983206;28;20200;-94
2021/01/31 12:53:21;;;;;;;5.90;5.30;;;;;;;;;;4982698;28;20224;-90
2021/01/31 12:55:48;;;;;;;6.53;5.85;;;;;;;;;;4981572;28;20284;-93
2021/01/31 12:58:16;;;;;;;6.40;5.80;;;;;;;;;;4981055;28;20244;-93
2021/01/31 13:00:43;;;;;;;7.55;6.60;;;;;;;;;;4981356;28;20185;-93
2021/01/31 13:03:10;;;;;;;6.65;5.97;;;;;;;;;;4981506;28;20216;-94
2021/01/31 13:05:40;;;;;;;6.57;5.85;;;;;;;;;;4982188;28;20287;-92
2021/01/31 13:08:08;;;;;;;7.93;6.47;;;;;;;;;;4982127;28;20219;-94
2021/01/31 13:10:35;;;;;;;8.93;6.57;;;;;;;;;;4980730;28;20292;-93
2021/01/31 13:13:02;;;;;;;5.82;5.22;;;;;;;;;;4981406;28;20288;-93
2021/01/31 13:15:33;;;;;;;6.25;5.25;;;;;;;;;;4980960;28;20188;-95
2021/01/31 13:18:00;;;;;;;6.90;5.60;;;;;;;;;;4981239;28;20291;-93
2021/01/31 13:20:28;;;;;;;7.93;6.60;;;;;;;;;;4981256;28;20287;-93
2021/01/31 13:22:55;;;;;;;6.45;5.85;;;;;;;;;;4981625;28;20223;-92
2021/01/31 13:25:23;;;;;;;7.75;5.60;;;;;;;;;;4981256;28;20223;-93
2021/01/31 13:27:50;;;;;;;6.93;5.32;;;;;;;;;;4980850;28;20272;-92
2021/01/31 13:30:21;;;;;;;6.10;5.45;;;;;;;;;;4981179;28;20192;-95
2021/01/31 13:32:50;;;;;;;6.45;5.75;;;;;;;;;;4981434;28;20204;-93
2021/01/31 13:35:19;;;;;;;7.25;5.05;;;;;;;;;;4979992;28;20197;-93
2021/01/31 13:37:46;;;;;;;6.00;5.40;;;;;;;;;;4980933;28;20184;-92
2021/01/31 13:40:14;;;;;;;6.60;5.68;;;;;;;;;;4980470;28;20258;-91
2021/01/31 13:42:42;;;;;;;7.15;5.85;;;;;;;;;;4981268;28;20227;-93
2021/01/31 13:45:15;;;;;;;8.00;5.45;;;;;;;;;;4980658;28;20218;-92
2021/01/31 13:47:42;;;;;;;7.03;5.68;;;;;;;;;;4968947;28;20247;-93
2021/01/31 13:50:20;;;;;;;5.75;5.15;;;;;;;;;;4961781;28;20476;-95
2021/01/31 13:52:47;;;;;;;6.35;5.72;;;;;;;;;;4961113;29;20221;-92
2021/01/31 13:55:15;;;;;;;7.28;5.68;;;;;;;;;;4961838;29;20280;-92
2021/01/31 13:57:46;;;;;;;6.55;5.57;;;;;;;;;;4962203;29;20193;-93
2021/01/31 14:00:16;;;;;;;6.07;5.47;;;;;;;;;;4960453;29;20181;-91
2021/01/31 14:02:43;;;;;;;7.28;6.22;;;;;;;;;;4961121;29;20188;-91
2021/01/31 14:05:19;;;;;;;6.60;5.50;;;;;;;;;;4960455;29;20227;-91
2021/01/31 14:07:47;;;;;;;7.57;6.78;;;;;;;;;;4902665;29;20207;-93
2021/01/31 14:10:18;;;;;;;7.43;6.25;;;;;;;;;;4902729;29;20285;-93
2021/01/31 14:12:46;;;;;;;7.90;6.20;;;;;;;;;;4902556;29;20231;-93
2021/01/31 14:15:13;;;;;;;16.38;11.70;;;;;;;;;;4902642;29;20226;-94
2021/01/31 14:17:44;;;;;;;8.43;5.97;;;;;;;;;;4902739;29;20211;-94
2021/01/31 14:20:21;;;;;;;7.22;5.55;;;;;;;;;;4902845;29;20577;-93
2021/01/31 14:22:49;;;;;;;6.22;5.28;;;;;;;;;;4902577;29;20465;-89
2021/01/31 14:25:17;;;;;;;6.80;5.60;;;;;;;;;;4915635;29;20288;-94
2021/01/31 14:27:45;;;;;;;5.63;4.95;;;;;;;;;;4957031;28;20301;-94
2021/01/31 14:30:17;;;;;;;7.05;5.53;;;;;;;;;;4955028;29;20213;-93
2021/01/31 14:32:47;;;;;;;6.18;5.18;;;;;;;;;;4959901;28;20567;-95
2021/01/31 14:35:17;;;;;;;7.63;6.68;;;;;;;;;;4974924;28;20228;-94
2021/01/31 14:37:45;;;;;;;6.72;5.53;;;;;;;;;;4980544;28;20319;-95
2021/01/31 14:40:26;;;;;;;5.82;5.32;;;;;;;;;;4983698;28;20232;-96
2021/01/31 14:42:59;;;;;;;6.43;5.63;;;;;;;;;;4983378;28;20220;-96
2021/01/31 14:45:30;;;;;;;6.65;5.03;;;;;;;;;;4979819;28;20519;-94
2021/01/31 14:47:57;;;;;;;5.72;5.20;;;;;;;;;;4979661;28;20307;-94
2021/01/31 14:50:25;;;;;;;7.15;5.50;;;;;;;;;;4980474;28;20222;-94
2021/01/31 14:52:53;;;;;;;5.57;4.97;;;;;;;;;;4979823;28;20185;-94
2021/01/31 14:55:29;;;;;;;6.25;5.25;;;;;;;;;;4966487;28;20248;-95
2021/01/31 14:57:56;;;;;;;6.28;5.45;;;;;;;;;;4960797;29;20211;-93
2021/01/31 15:00:27;;;;;;;6.35;5.65;;;;;;;;;;4960750;29;20209;-94
2021/01/31 15:02:54;;;;;;;6.07;5.47;;;;;;;;;;4960429;29;20207;-93
2021/01/31 15:05:22;;;;;;;5.85;5.25;;;;;;;;;;4956772;29;20193;-93
2021/01/31 15:07:50;;;;;;;5.93;5.15;;;;;;;;;;4960764;29;20467;-94
2021/01/31 15:10:19;;;;;;;5.60;5.10;;;;;;;;;;4960215;29;20280;-93
2021/01/31 15:12:46;;;;;;;6.72;5.78;;;;;;;;;;4960183;28;20229;-95
2021/01/31 15:15:14;;;;;;;5.25;4.75;;;;;;;;;;4960215;28;20239;-93
2021/01/31 15:17:42;;;;;;;7.55;5.68;;;;;;;;;;4959800;29;20591;-94
2021/01/31 15:20:14;;;;;;;6.22;5.43;;;;;;;;;;4960524;28;20212;-93
2021/01/31 15:22:41;;;;;;;6.25;5.40;;;;;;;;;;4960351;29;20197;-94
2021/01/31 15:25:13;;;;;;;6.22;5.20;;;;;;;;;;4960207;29;20190;-94
2021/01/31 15:27:43;;;;;;;5.43;4.63;;;;;;;;;;4960408;29;20512;-96
2021/01/31 15:30:14;;;;;;;7.07;5.43;;;;;;;;;;4960822;29;20219;-95
2021/01/31 15:32:41;;;;;;;6.03;5.53;;;;;;;;;;4960151;29;20189;-94
2021/01/31 15:35:10;;;;;;;5.22;4.72;;;;;;;;;;4963322;28;20225;-94
2021/01/31 15:37:40;;;;;;;7.00;6.22;;;;;;;;;;4965333;29;20201;-96
2021/01/31 15:40:27;;;;;;;7.47;5.65;;;;;;;;;;4965904;29;20227;-96
2021/01/31 15:42:54;;;;;;;8.45;6.70;;;;;;;;;;4997529;23;20299;-96
2021/01/31 15:45:23;;;;;;;6.43;5.40;;;;;;;;;;5011779;28;20248;-96
2021/01/31 15:47:51;;;;;;;6.72;5.30;;;;;;;;;;5008224;28;20211;-96
2021/01/31 15:50:23;;;;;;;6.25;5.65;;;;;;;;;;5011959;28;20203;-96
2021/01/31 15:52:51;;;;;;;5.25;4.75;;;;;;;;;;5011554;28;20211;-96
2021/01/31 15:55:20;;;;;;;4.95;4.45;;;;;;;;;;5008830;28;20227;-95
2021/01/31 15:57:48;;;;;;;5.13;4.53;;;;;;;;;;5009220;28;20587;-96